LRTR/TSR METAR and TAF weather

Enter ICAO airport designator
Station Type Date Time Source
LRTR METAR 2021/04/13 07:00 UTC NOAA

LRTR 130700Z 27007KT 9999 FEW010 08/08 Q1016 NOSIG


Station Type Date Time Source
LRTR Decoded METAR 2021/04/13 07:00 UTC NOAA

Timisoara, Romania (LRTR) 45-46N 021-15E 88M
Apr 13, 2021 - 03:00 AM EDT / 2021.04.13 0700 UTC
Wind: from the W (270 degrees) at 8 MPH (7 KT):0
Visibility: greater than 7 mile(s):0
Sky conditions: mostly clear
Temperature: 46 F (8 C)
Dew Point: 46 F (8 C)
Relative Humidity: 100%
Pressure (altimeter): 30.00 in. Hg (1016 hPa)
ob: LRTR 130700Z 27007KT 9999 FEW010 08/08 Q1016 NOSIG
cycle: 7

Station Type Date Time Source
LRTR TAF 2021/04/13 06:33 UTC NOAA

TAF LRTR 130500Z 1306/1406 28008KT CAVOK PROB40
TEMPO 1310/1313 SCT035CB
BECMG 1313/1315 5000 -RA BR BKN015 OVC030
TEMPO 1318/1400 3000 RA BKN010 OVC025

Example: see airport list